createdAt,value
2022-12-28T00:02:19.497Z,6.07
2022-12-28T00:04:48.671Z,7.53
2022-12-28T00:07:17.710Z,5.75
2022-12-28T00:09:45.638Z,6.90
2022-12-28T00:12:13.818Z,7.10
2022-12-28T00:14:41.614Z,7.85
2022-12-28T00:17:12.840Z,5.30
2022-12-28T00:19:41.077Z,6.18
2022-12-28T00:22:08.823Z,6.53
2022-12-28T00:24:36.672Z,4.85
2022-12-28T00:27:08.150Z,5.62
2022-12-28T00:29:36.066Z,5.45
2022-12-28T00:32:07.444Z,5.75
2022-12-28T00:34:35.534Z,7.25
2022-12-28T00:37:10.050Z,10.60
2022-12-28T00:39:42.889Z,5.80
2022-12-28T00:42:15.582Z,8.68
2022-12-28T00:44:43.971Z,6.37
2022-12-28T00:47:11.871Z,8.00
2022-12-28T00:49:40.106Z,8.02
2022-12-28T00:52:08.400Z,7.47
2022-12-28T00:54:36.270Z,7.82
2022-12-28T00:57:04.232Z,4.90
2022-12-28T00:59:34.165Z,6.75
2022-12-28T01:02:02.248Z,6.90
2022-12-28T01:04:30.119Z,8.52
2022-12-28T01:06:58.226Z,7.43
2022-12-28T01:09:26.060Z,8.45
2022-12-28T01:11:55.454Z,6.30
2022-12-28T01:14:26.966Z,7.25
2022-12-28T01:16:54.843Z,4.37
2022-12-28T01:19:24.620Z,5.55
2022-12-28T01:21:55.641Z,7.15
2022-12-28T01:24:24.138Z,7.05
2022-12-28T01:26:55.067Z,6.72
2022-12-28T01:29:23.303Z,8.00
2022-12-28T01:31:51.203Z,9.05
2022-12-28T01:34:19.117Z,8.93
2022-12-28T01:36:50.301Z,8.23
2022-12-28T01:39:18.173Z,6.90
2022-12-28T01:41:46.049Z,6.00
2022-12-28T01:44:17.111Z,6.22
2022-12-28T01:46:52.591Z,7.93
2022-12-28T01:49:29.070Z,6.80
2022-12-28T01:52:12.554Z,5.53
2022-12-28T01:54:46.993Z,5.80
2022-12-28T01:57:19.942Z,6.80
2022-12-28T01:59:56.500Z,7.55
2022-12-28T02:02:27.996Z,6.30
2022-12-28T02:05:00.830Z,8.87
2022-12-28T02:07:49.203Z,11.95
2022-12-28T02:10:41.569Z,11.35
2022-12-28T02:13:09.042Z,9.45
2022-12-28T02:15:37.345Z,10.98
2022-12-28T02:18:05.332Z,7.87
2022-12-28T02:21:10.375Z,9.70
2022-12-28T02:23:56.277Z,8.13
2022-12-28T02:26:36.090Z,8.55
2022-12-28T02:29:39.811Z,8.88
2022-12-28T02:32:26.331Z,6.72
2022-12-28T02:35:18.060Z,7.07
2022-12-28T02:37:48.070Z,6.22
2022-12-28T02:40:36.368Z,7.03
2022-12-28T02:43:04.492Z,6.35
2022-12-28T02:45:57.200Z,5.10
2022-12-28T02:48:43.945Z,5.37
2022-12-28T02:51:41.739Z,6.47
2022-12-28T02:54:59.189Z,5.47
2022-12-28T02:57:57.539Z,4.57
2022-12-28T03:00:30.551Z,6.80
2022-12-28T03:03:10.734Z,10.30
2022-12-28T03:06:35.737Z,5.78
2022-12-28T03:09:31.627Z,7.15
2022-12-28T03:12:09.096Z,8.80
2022-12-28T03:14:45.409Z,8.70
2022-12-28T03:17:33.792Z,7.37
2022-12-28T03:20:26.679Z,6.82
2022-12-28T03:23:20.897Z,7.22
2022-12-28T03:26:09.511Z,7.47
2022-12-28T03:29:01.613Z,6.22
2022-12-28T03:31:31.593Z,6.40
2022-12-28T03:34:11.569Z,3.72
2022-12-28T03:37:02.973Z,5.72
2022-12-28T03:39:37.066Z,6.55
2022-12-28T03:42:43.089Z,5.37
2022-12-28T03:45:45.323Z,6.85
2022-12-28T03:48:17.682Z,4.50
2022-12-28T03:50:48.901Z,6.72
2022-12-28T03:53:28.168Z,4.53
2022-12-28T03:56:16.769Z,7.97
2022-12-28T03:58:45.847Z,6.22
2022-12-28T04:01:17.872Z,4.53
2022-12-28T04:03:46.677Z,4.50
2022-12-28T04:06:17.406Z,6.22
2022-12-28T04:08:46.967Z,5.45
2022-12-28T04:11:15.751Z,3.37
2022-12-28T04:13:44.660Z,5.28
2022-12-28T04:16:14.611Z,8.18
2022-12-28T04:18:43.805Z,4.75
2022-12-28T04:21:13.412Z,4.93
2022-12-28T04:23:42.182Z,4.62
2022-12-28T04:26:13.686Z,5.07
2022-12-28T04:28:42.523Z,5.00
2022-12-28T04:31:16.448Z,6.37
2022-12-28T04:33:45.874Z,5.65
2022-12-28T04:36:16.444Z,5.85
2022-12-28T04:38:44.581Z,5.43
2022-12-28T04:41:15.497Z,6.35
2022-12-28T04:43:43.701Z,5.78
2022-12-28T04:46:14.305Z,4.93
2022-12-28T04:48:42.623Z,4.50
2022-12-28T04:51:26.856Z,5.80
2022-12-28T04:53:55.756Z,5.30
2022-12-28T04:56:25.777Z,5.15
2022-12-28T04:58:58.324Z,4.87
2022-12-28T05:03:58.253Z,6.85
2022-12-28T05:06:29.750Z,6.07
2022-12-28T05:08:58.190Z,6.07
2022-12-28T05:11:28.303Z,5.18
2022-12-28T05:13:57.322Z,4.45
2022-12-28T05:16:27.465Z,5.35
2022-12-28T05:18:57.092Z,4.55
2022-12-28T05:21:28.580Z,6.40
2022-12-28T05:23:57.192Z,4.90
2022-12-28T05:26:29.215Z,4.28
2022-12-28T05:28:59.003Z,5.68
2022-12-28T05:31:27.870Z,6.20
2022-12-28T05:33:55.994Z,6.75
2022-12-28T05:36:26.300Z,7.25
2022-12-28T05:38:55.884Z,5.03
2022-12-28T05:41:26.548Z,4.80
2022-12-28T05:43:56.032Z,7.50
2022-12-28T05:46:34.857Z,5.05
2022-12-28T05:49:03.148Z,6.82
2022-12-28T05:51:33.223Z,3.97
2022-12-28T05:54:04.805Z,5.80
2022-12-28T05:56:36.674Z,6.20
2022-12-28T05:59:06.997Z,6.45
2022-12-28T06:01:37.946Z,7.03
2022-12-28T06:04:17.240Z,4.55
2022-12-28T06:06:46.752Z,7.53
2022-12-28T06:09:15.341Z,7.18
2022-12-28T06:11:43.669Z,7.30
2022-12-28T06:14:11.665Z,6.82
2022-12-28T06:16:42.278Z,8.70
2022-12-28T06:19:12.804Z,7.70
2022-12-28T06:21:44.037Z,7.35
2022-12-28T06:24:14.172Z,7.15
2022-12-28T06:26:42.567Z,6.15
2022-12-28T06:29:10.969Z,8.43
2022-12-28T06:31:40.966Z,5.85
2022-12-28T06:34:10.281Z,5.87
2022-12-28T06:36:41.157Z,5.60
2022-12-28T06:39:11.671Z,8.30
2022-12-28T06:41:40.177Z,6.57
2022-12-28T06:44:10.139Z,7.50
2022-12-28T06:46:39.415Z,5.70
2022-12-28T06:49:07.175Z,7.87
2022-12-28T06:54:24.383Z,7.22
2022-12-28T06:56:52.066Z,6.95
2022-12-28T06:59:19.795Z,6.35
2022-12-28T07:01:47.922Z,6.93
2022-12-28T07:04:15.717Z,6.72
2022-12-28T07:06:44.687Z,10.20
2022-12-28T07:09:15.644Z,5.57
2022-12-28T07:11:44.720Z,7.18
2022-12-28T07:14:13.410Z,7.00
2022-12-28T07:19:08.174Z,8.50
2022-12-28T07:21:39.693Z,7.97
2022-12-28T07:24:07.908Z,5.93
2022-12-28T07:26:37.810Z,9.30
2022-12-28T07:29:07.270Z,7.72
2022-12-28T07:31:44.181Z,5.90
2022-12-28T07:34:16.693Z,10.05
2022-12-28T07:36:44.589Z,7.28
2022-12-28T07:39:12.453Z,6.32
2022-12-28T07:41:40.610Z,9.13
2022-12-28T07:44:10.433Z,6.03
2022-12-28T07:46:38.829Z,9.77
2022-12-28T07:49:09.615Z,7.80
2022-12-28T07:51:39.202Z,5.95
2022-12-28T07:54:07.809Z,6.70
2022-12-28T07:59:04.834Z,6.55
2022-12-28T08:01:37.131Z,6.82
2022-12-28T08:04:08.027Z,8.02
2022-12-28T08:06:38.451Z,9.98
2022-12-28T08:09:07.933Z,8.00
2022-12-28T08:11:38.914Z,6.78
2022-12-28T08:14:10.634Z,8.00
2022-12-28T08:16:40.695Z,7.90
2022-12-28T08:19:10.085Z,9.07
2022-12-28T08:21:43.475Z,7.55
2022-12-28T08:24:17.461Z,9.13
2022-12-28T08:26:49.281Z,7.90
2022-12-28T08:29:21.008Z,8.05
2022-12-28T08:31:49.924Z,8.77
2022-12-28T08:34:22.951Z,11.05
2022-12-28T08:36:50.764Z,8.18
2022-12-28T08:39:18.885Z,9.57
2022-12-28T08:41:46.717Z,7.22
2022-12-28T08:44:14.455Z,9.65
2022-12-28T08:46:43.158Z,9.05
2022-12-28T08:49:13.993Z,11.85
2022-12-28T08:51:42.999Z,9.40
2022-12-28T08:54:12.437Z,11.15
2022-12-28T08:56:42.669Z,9.65
2022-12-28T08:59:14.928Z,9.13
2022-12-28T09:01:46.827Z,9.27
2022-12-28T09:04:18.232Z,9.40
2022-12-28T09:06:50.010Z,10.23
2022-12-28T09:09:20.097Z,11.77
2022-12-28T09:11:50.850Z,10.90
2022-12-28T09:14:23.666Z,10.52
2022-12-28T09:16:55.537Z,12.70
2022-12-28T09:19:23.957Z,17.23
2022-12-28T09:21:55.679Z,11.77
2022-12-28T09:24:23.925Z,11.52
2022-12-28T09:26:53.170Z,8.38
2022-12-28T09:29:23.986Z,9.25
2022-12-28T09:31:52.223Z,12.80
2022-12-28T09:34:37.287Z,10.82
2022-12-28T09:37:08.077Z,10.45
2022-12-28T09:39:36.093Z,6.85
2022-12-28T09:42:18.771Z,12.27
2022-12-28T09:45:12.688Z,7.85
2022-12-28T09:47:52.635Z,10.10
2022-12-28T09:50:33.264Z,10.15
2022-12-28T09:53:26.940Z,12.75
2022-12-28T09:56:00.070Z,12.13
2022-12-28T09:58:30.740Z,13.18
2022-12-28T10:01:02.929Z,11.50
2022-12-28T10:03:40.845Z,8.85
2022-12-28T10:06:14.775Z,10.32
2022-12-28T10:08:49.356Z,12.35
2022-12-28T10:11:23.100Z,10.20
2022-12-28T10:16:28.150Z,8.70
2022-12-28T10:18:56.582Z,10.43
2022-12-28T10:21:32.371Z,10.10
2022-12-28T10:24:31.275Z,13.65
2022-12-28T10:26:59.381Z,10.82
2022-12-28T10:29:28.161Z,9.55
2022-12-28T10:32:05.099Z,9.25
2022-12-28T10:34:35.313Z,10.98
2022-12-28T10:37:17.656Z,9.60
2022-12-28T10:39:57.429Z,8.52
2022-12-28T10:42:34.202Z,10.43
2022-12-28T10:45:20.513Z,12.37
2022-12-28T10:47:52.514Z,8.93
2022-12-28T10:50:40.400Z,9.43
2022-12-28T10:53:28.781Z,10.63
2022-12-28T10:56:05.127Z,8.23
2022-12-28T10:58:34.722Z,8.02
2022-12-28T11:01:30.339Z,7.37
2022-12-28T11:04:08.200Z,8.93
2022-12-28T11:06:52.637Z,8.05
2022-12-28T11:09:26.479Z,12.48
2022-12-28T11:12:15.824Z,10.45
2022-12-28T11:14:43.857Z,7.78
2022-12-28T11:17:34.724Z,9.27
2022-12-28T11:20:12.807Z,8.43
2022-12-28T11:22:44.608Z,8.60
2022-12-28T11:25:19.859Z,8.27
2022-12-28T11:27:49.240Z,9.50
2022-12-28T11:30:19.317Z,10.27
2022-12-28T11:32:56.009Z,7.95
2022-12-28T11:35:29.067Z,6.40
2022-12-28T11:38:07.593Z,9.65
2022-12-28T11:40:50.836Z,7.87
2022-12-28T11:43:30.896Z,8.90
2022-12-28T11:46:03.734Z,7.30
2022-12-28T11:48:43.825Z,11.48
2022-12-28T11:51:20.892Z,8.93
2022-12-28T11:53:50.452Z,11.25
2022-12-28T11:56:47.792Z,12.57
2022-12-28T11:59:30.001Z,11.95
2022-12-28T12:02:22.527Z,11.02
2022-12-28T12:04:53.738Z,11.97
2022-12-28T12:07:31.677Z,8.55
2022-12-28T12:10:15.605Z,13.88
2022-12-28T12:12:52.801Z,9.90
2022-12-28T12:15:28.332Z,10.68
2022-12-28T12:18:02.999Z,14.45
2022-12-28T12:20:49.271Z,12.32
2022-12-28T12:24:04.673Z,13.70
2022-12-28T12:26:51.115Z,13.73
2022-12-28T12:29:25.031Z,17.30
2022-12-28T12:32:07.958Z,16.08
2022-12-28T12:34:50.189Z,18.05
2022-12-28T12:37:36.073Z,18.00
2022-12-28T12:40:10.195Z,20.85
2022-12-28T12:43:00.379Z,21.10
2022-12-28T12:45:31.678Z,18.23
2022-12-28T12:48:38.086Z,19.50
2022-12-28T12:51:38.194Z,14.77
2022-12-28T12:54:29.442Z,12.75
2022-12-28T12:57:19.744Z,13.13
2022-12-28T13:00:16.918Z,12.63
2022-12-28T13:03:07.079Z,13.52
2022-12-28T13:05:39.552Z,13.43
2022-12-28T13:08:07.662Z,13.70
2022-12-28T13:10:44.257Z,10.95
2022-12-28T13:13:24.684Z,11.50
2022-12-28T13:16:03.118Z,16.92
2022-12-28T13:18:44.652Z,14.75
2022-12-28T13:23:47.188Z,10.17
2022-12-28T13:26:17.408Z,14.20
2022-12-28T13:29:01.488Z,11.18
2022-12-28T13:31:45.767Z,13.00
2022-12-28T13:34:13.544Z,10.60
2022-12-28T13:36:58.778Z,11.90
2022-12-28T13:39:35.333Z,16.73
2022-12-28T13:42:18.315Z,14.38
2022-12-28T13:45:00.199Z,13.38
2022-12-28T13:47:35.318Z,13.25
2022-12-28T13:50:05.109Z,15.85
2022-12-28T13:52:56.661Z,15.90
2022-12-28T13:55:29.881Z,14.52
2022-12-28T13:58:04.634Z,14.80
2022-12-28T14:00:34.427Z,19.40
2022-12-28T14:03:07.974Z,16.67
2022-12-28T14:05:36.181Z,19.62
2022-12-28T14:08:07.152Z,22.62
2022-12-28T14:10:38.021Z,21.40
2022-12-28T14:13:08.536Z,21.50
2022-12-28T14:15:41.432Z,20.53
2022-12-28T14:18:15.220Z,20.33
2022-12-28T14:20:51.096Z,21.27
2022-12-28T14:23:21.561Z,16.98
2022-12-28T14:25:50.262Z,17.25
2022-12-28T14:28:43.623Z,16.92
2022-12-28T14:31:19.885Z,19.85
2022-12-28T14:33:55.815Z,23.92
2022-12-28T14:36:29.731Z,18.83
2022-12-28T14:39:04.684Z,18.52
2022-12-28T14:41:45.936Z,24.52
2022-12-28T14:44:23.503Z,23.40
2022-12-28T14:46:54.742Z,19.58
2022-12-28T14:49:28.845Z,21.92
2022-12-28T14:52:09.072Z,17.83
2022-12-28T14:54:51.819Z,15.50
2022-12-28T14:59:59.417Z,21.90
2022-12-28T15:02:39.254Z,27.27
2022-12-28T15:05:37.034Z,27.05
2022-12-28T15:08:06.613Z,32.55
2022-12-28T15:10:39.903Z,31.23
2022-12-28T15:13:08.253Z,30.65
2022-12-28T15:15:36.185Z,35.83
2022-12-28T15:18:06.862Z,35.42
2022-12-28T15:20:39.234Z,34.53
2022-12-28T15:23:07.116Z,29.60
2022-12-28T15:25:35.618Z,25.52
2022-12-28T15:28:04.060Z,22.67
2022-12-28T15:30:31.949Z,29.60
2022-12-28T15:33:00.171Z,25.62
2022-12-28T15:35:28.095Z,31.67
2022-12-28T15:37:56.585Z,31.55
2022-12-28T15:40:24.748Z,32.33
2022-12-28T15:42:52.469Z,31.33
2022-12-28T15:45:24.126Z,28.55
2022-12-28T15:47:55.921Z,26.52
2022-12-28T15:50:26.581Z,29.92
2022-12-28T15:52:54.865Z,30.98
2022-12-28T15:55:25.878Z,23.75
2022-12-28T15:57:54.188Z,28.08
2022-12-28T16:00:22.029Z,36.92
2022-12-28T16:02:50.474Z,31.23
2022-12-28T16:05:18.628Z,25.77
2022-12-28T16:07:49.736Z,21.48
2022-12-28T16:10:19.279Z,20.12
2022-12-28T16:12:47.000Z,27.55
2022-12-28T16:15:14.764Z,24.65
2022-12-28T16:17:52.983Z,31.15
2022-12-28T16:20:24.747Z,29.37
2022-12-28T16:22:54.078Z,23.42
2022-12-28T16:25:21.920Z,27.05
2022-12-28T16:27:49.771Z,31.90
2022-12-28T16:30:18.373Z,26.60
2022-12-28T16:32:47.943Z,27.13
2022-12-28T16:35:15.913Z,25.27
2022-12-28T16:37:43.980Z,25.98
2022-12-28T16:40:11.876Z,24.37
2022-12-28T16:42:46.174Z,20.33
2022-12-28T16:45:15.334Z,28.20
2022-12-28T16:47:45.079Z,25.92
2022-12-28T16:53:01.279Z,28.90
2022-12-28T16:55:29.221Z,28.62
2022-12-28T16:57:57.215Z,26.08
2022-12-28T17:00:25.660Z,29.40
2022-12-28T17:02:53.492Z,27.50
2022-12-28T17:05:22.128Z,25.58
2022-12-28T17:07:50.376Z,23.67
2022-12-28T17:10:18.629Z,33.15
2022-12-28T17:15:31.557Z,23.30
2022-12-28T17:17:59.215Z,25.95
2022-12-28T17:20:27.867Z,32.28
2022-12-28T17:22:55.988Z,23.67
2022-12-28T17:25:23.771Z,24.52
2022-12-28T17:27:51.572Z,23.35
2022-12-28T17:30:19.735Z,21.37
2022-12-28T17:32:47.470Z,20.37
2022-12-28T17:35:15.743Z,21.58
2022-12-28T17:37:43.912Z,25.23
2022-12-28T17:40:11.790Z,25.17
2022-12-28T17:42:40.077Z,23.42
2022-12-28T17:45:11.661Z,26.42
2022-12-28T17:47:39.948Z,22.30
2022-12-28T17:50:09.339Z,20.73
2022-12-28T17:52:37.111Z,26.00
2022-12-28T17:55:05.427Z,31.35
2022-12-28T17:57:38.464Z,28.80
2022-12-28T18:02:39.950Z,27.77
2022-12-28T18:05:08.514Z,22.05
2022-12-28T18:07:36.370Z,21.52
2022-12-28T18:10:04.329Z,23.35
2022-12-28T18:12:32.374Z,25.92
2022-12-28T18:15:00.168Z,23.65
2022-12-28T18:17:28.352Z,21.37
2022-12-28T18:19:56.463Z,25.35
2022-12-28T18:22:24.643Z,24.73
2022-12-28T18:24:53.810Z,23.38
2022-12-28T18:27:22.103Z,22.30
2022-12-28T18:29:51.428Z,23.27
2022-12-28T18:32:19.916Z,23.35
2022-12-28T18:34:48.185Z,22.05
2022-12-28T18:37:15.909Z,23.62
2022-12-28T18:39:43.803Z,23.35
2022-12-28T18:42:12.419Z,21.30
2022-12-28T18:44:40.297Z,18.35
2022-12-28T18:47:08.092Z,20.60
2022-12-28T18:49:36.384Z,17.12
2022-12-28T18:52:05.682Z,24.30
2022-12-28T18:54:33.525Z,18.48
2022-12-28T18:57:01.971Z,20.62
2022-12-28T18:59:30.078Z,19.00
2022-12-28T19:02:07.880Z,22.13
2022-12-28T19:04:37.411Z,23.20
2022-12-28T19:07:05.388Z,24.58
2022-12-28T19:09:33.503Z,20.58
2022-12-28T19:12:05.351Z,19.67
2022-12-28T19:14:33.249Z,26.05
2022-12-28T19:17:01.467Z,27.00
2022-12-28T19:19:29.166Z,17.92
2022-12-28T19:21:59.086Z,23.38
2022-12-28T19:24:27.712Z,18.75
2022-12-28T19:26:55.685Z,19.37
2022-12-28T19:29:24.107Z,16.60
2022-12-28T19:31:52.536Z,18.25
2022-12-28T19:34:20.305Z,16.45
2022-12-28T19:36:48.177Z,16.00
2022-12-28T19:39:16.714Z,19.15
2022-12-28T19:41:44.645Z,16.30
2022-12-28T19:44:12.568Z,19.62
2022-12-28T19:46:44.076Z,18.40
2022-12-28T19:49:11.930Z,15.73
2022-12-28T19:51:40.209Z,16.12
2022-12-28T19:54:08.099Z,17.10
2022-12-28T19:56:35.943Z,12.35
2022-12-28T19:59:07.599Z,16.40
2022-12-28T20:01:37.383Z,16.52
2022-12-28T20:04:13.053Z,11.75
2022-12-28T20:06:45.405Z,8.30
2022-12-28T20:09:15.150Z,10.40
2022-12-28T20:11:43.526Z,11.00
2022-12-28T20:14:21.704Z,11.68
2022-12-28T20:16:52.997Z,9.27
2022-12-28T20:19:20.824Z,9.75
2022-12-28T20:21:49.808Z,13.95
2022-12-28T20:24:20.211Z,8.18
2022-12-28T20:26:48.143Z,9.23
2022-12-28T20:29:16.667Z,11.77
2022-12-28T20:31:45.108Z,9.10
2022-12-28T20:34:12.939Z,11.73
2022-12-28T20:36:43.996Z,10.93
2022-12-28T20:39:12.201Z,8.63
2022-12-28T20:41:59.213Z,11.23
2022-12-28T20:44:31.592Z,9.25
2022-12-28T20:47:00.904Z,14.77
2022-12-28T20:49:29.686Z,11.10
2022-12-28T20:51:57.938Z,8.23
2022-12-28T20:54:26.273Z,8.90
2022-12-28T20:56:56.104Z,10.88
2022-12-28T20:59:27.315Z,10.95
2022-12-28T21:01:55.733Z,8.40
2022-12-28T21:04:24.907Z,7.75
2022-12-28T21:06:54.390Z,12.18
2022-12-28T21:09:22.730Z,14.75
2022-12-28T21:11:50.654Z,11.90
2022-12-28T21:14:18.711Z,11.32
2022-12-28T21:16:47.238Z,10.27
2022-12-28T21:19:15.246Z,11.63
2022-12-28T21:21:47.719Z,11.15
2022-12-28T21:26:43.645Z,7.72
2022-12-28T21:29:11.493Z,10.00
2022-12-28T21:31:39.677Z,8.13
2022-12-28T21:34:08.076Z,10.80
2022-12-28T21:36:35.815Z,11.43
2022-12-28T21:39:06.814Z,10.00
2022-12-28T21:41:49.837Z,10.30
2022-12-28T21:44:23.729Z,10.02
2022-12-28T21:46:53.063Z,9.43
2022-12-28T21:49:21.793Z,8.60
2022-12-28T21:51:50.438Z,10.63
2022-12-28T21:54:21.562Z,10.75
2022-12-28T21:56:53.006Z,10.60
2022-12-28T21:59:22.117Z,9.32
2022-12-28T22:02:09.479Z,10.95
2022-12-28T22:05:02.950Z,12.40
2022-12-28T22:07:31.747Z,10.10
2022-12-28T22:10:18.304Z,10.77
2022-12-28T22:12:46.129Z,10.95
2022-12-28T22:15:37.928Z,6.75
2022-12-28T22:18:08.667Z,15.75
2022-12-28T22:23:25.104Z,9.07
2022-12-28T22:25:55.621Z,10.18
2022-12-28T22:28:23.355Z,9.70
2022-12-28T22:30:51.085Z,11.02
2022-12-28T22:33:19.236Z,13.18
2022-12-28T22:35:49.796Z,11.05
2022-12-28T22:38:17.444Z,8.50
2022-12-28T22:40:45.617Z,9.35
2022-12-28T22:43:13.440Z,12.25
2022-12-28T22:45:41.372Z,14.15
2022-12-28T22:48:09.497Z,11.55
2022-12-28T22:50:42.991Z,7.75
2022-12-28T22:53:14.498Z,13.95
2022-12-28T22:55:42.258Z,9.35
2022-12-28T22:58:10.151Z,11.18
2022-12-28T23:00:38.342Z,12.70
2022-12-28T23:03:07.318Z,14.73
2022-12-28T23:05:35.043Z,8.85
2022-12-28T23:08:03.539Z,10.48
2022-12-28T23:10:31.282Z,8.10
2022-12-28T23:12:59.164Z,9.52
2022-12-28T23:15:27.410Z,10.85
2022-12-28T23:18:15.352Z,10.10
2022-12-28T23:21:02.054Z,11.18
2022-12-28T23:23:51.649Z,8.88
2022-12-28T23:26:38.413Z,11.00
2022-12-28T23:29:06.230Z,8.88
2022-12-28T23:31:34.305Z,11.98
2022-12-28T23:34:02.194Z,9.60
2022-12-28T23:36:35.046Z,10.07
2022-12-28T23:39:03.351Z,9.68
2022-12-28T23:41:49.602Z,9.98
2022-12-28T23:44:20.482Z,9.73
2022-12-28T23:46:51.331Z,9.98
2022-12-28T23:49:22.413Z,9.25
2022-12-28T23:51:50.220Z,9.02
2022-12-28T23:54:19.604Z,8.13
2022-12-28T23:56:49.068Z,6.53
2022-12-28T23:59:16.910Z,5.90
